Home / US / Tennessee / Daisy

Daisy, TN Weather

Current Report for Sun Jan 21 2018

As of 7:53 AM CST SUN JAN 21 2018

37°F 3°cDaisy weather conditions : Mostly Cloudy

Mostly Cloudy

Barometer: 30.27 inHg. rising

Humidity: 86%

Wind: N. 0mph

Wind Gust: 2mph

Wind Chill: 37°F

Dew Point: 33°F rising

Visibility: 10.00mi.

Sunrise: 6:46 AM

Sunset: 4:56 PM

Moon Phase: Waxing Crescent Moon

Daily and Hourly Summary

Loading Daisy TN Summary and Hourly data for today, tonight and tomorrow...
Forecast for Daisy, TN:
(Forecast based on TAF for )
0630 AM CST SUN JAN 21 2018
  
MORNING AFTERNOON EVENING OVERNIGHT MORNING
Mostly Cloudy Partly Cloudy Partly Cloudy Partly Cloudy Mostly Cloudy
Mostly
Cloudy
Partly
Cloudy
Partly
Cloudy
Partly
Cloudy
Mostly
Cloudy
Original Encoded TAF:
Dated: 0630 AM CST SUN JAN 21 2018
2018/01/21 12:30
TAF KCHA 211127Z 2112/2212 VRB03KT P6SM SCT050 BKN080 
     FM211900 18006KT P6SM SCT070 
     FM220000 VRB03KT P6SM BKN250

Temperatures Today (View More Charts)

Daisy, TN updates by locals

Write your own report, forecast, or traffic update:

Please note by clicking on "Post" you acknowledge that you have read the Terms of Service and the report and/or forecast you are posting is in compliance with such terms. Be respectful. An inappropriate post will be removed by a moderator. If you are not finding the information you want, please be sure to note the navigation tabs just above the breadcrumbs, which are links to other data relating to this city.